Terminal Aerodrome Forecast
Issued by NWS

Home | Current Version | Previous Version | Text Only | Print | Product List | Glossary On
Versions: 1 2 3 4 5 6 7 8 9 10 11 12 13 14 15 16 17 18 19
106
FTPA31 PHFO 211138
TAFHNY
TAF
PHNY 211138Z 2112/2212 04010KT P6SM SCT015 BKN040
      TEMPO 2112/2115 04010G20KT -SHRA BKN015
     FM211500 04020G30KT P6SM VCSH SCT015 BKN035
     FM211900 04030G45KT P6SM VCSH SCT015 BKN025
     FM220900 04020G30KT P6SM SCT015 BKN035=

USA.gov is the U.S. government's official web portal to all federal, state and local government web resources and services.